Aviation Digital Data Service (ADDS)

Output produced by METARs form (0233 UTC 16 January 2019)
found at http://www.aviationweather.gov/metar/data/
 
TAF GFLL 152300Z 1524/1706 29005KT 9999 FEW011 
     TEMPO 1604/1608 12003KT 5000 BR BKN012 
     TEMPO 1612/1616 27008KT 9000 SCT014 
     TEMPO 1620/1624 28010KT NSC 
     BECMG 1701/1703 VRB02KT 9999 SCT011